Time;durP1;ratioP1;P1;durP2;ratioP2;P2;SDS_P1;SDS_P2;PMS_P1;PMS_P2;Temp;Humidity;BMP_temperature;BMP_pressure;BME280_temperature;BME280_humidity;BME280_pressure;Samples;Min_cycle;Max_cycle;Signal;HPM_P1;HPM_P2
2021/10/22 15:58:29;;;;;;;3.6;6.4;;;;;;;10.6;47.3;98410;;;;
2021/10/22 16:08:40;;;;;;;3.6;6.4;;;;;;;10.3;48.6;98420;;;;
2021/10/22 16:18:33;;;;;;;3.6;6.4;;;;;;;10;49.4;98420;;;;
2021/10/22 16:28:33;;;;;;;;;;;;;;;9.7;50.8;98430;;;;
2021/10/22 16:38:33;;;;;;;5.7;10.3;;;;;;;9.7;50.8;98430;;;;
2021/10/22 16:48:35;;;;;;;5.7;10.3;;;;;;;9.8;50.2;98440;;;;
2021/10/22 16:58:33;;;;;;;5.7;10.3;;;;;;;9.5;50.8;98430;;;;
2021/10/22 17:08:33;;;;;;;6.9;11.8;;;;;;;9.3;50.9;98440;;;;
2021/10/22 17:18:36;;;;;;;6.9;11.8;;;;;;;9.4;50.5;98440;;;;
2021/10/22 17:28:35;;;;;;;6.9;11.8;;;;;;;9.2;51.6;98450;;;;
2021/10/22 17:38:34;;;;;;;5.1;8.5;;;;;;;9.2;51.6;98460;;;;
2021/10/22 17:48:33;;;;;;;5.1;8.5;;;;;;;8.9;53.3;98450;;;;
2021/10/22 17:58:34;;;;;;;5.1;8.5;;;;;;;8.9;53.3;98470;;;;
2021/10/22 18:08:34;;;;;;;6.6;11.7;;;;;;;8.6;54;98480;;;;
2021/10/22 18:18:33;;;;;;;6.6;11.7;;;;;;;8.6;54.3;98490;;;;
2021/10/22 18:28:35;;;;;;;6.6;11.7;;;;;;;8.4;54.3;98510;;;;
2021/10/22 18:38:33;;;;;;;6.9;13.1;;;;;;;8.1;55.5;98520;;;;
2021/10/22 18:48:35;;;;;;;6.9;13.1;;;;;;;7.7;56.2;98530;;;;
2021/10/22 18:58:33;;;;;;;6.9;13.1;;;;;;;7.8;55;98550;;;;
2021/10/22 19:08:34;;;;;;;9.7;13.7;;;;;;;8.3;52.5;98550;;;;
2021/10/22 19:18:33;;;;;;;9.7;13.7;;;;;;;8.4;51.6;98570;;;;
2021/10/22 19:28:33;;;;;;;9.7;13.7;;;;;;;8.6;50.2;98580;;;;
2021/10/22 19:38:34;;;;;;;5.1;9.8;;;;;;;8.7;49.4;98580;;;;
2021/10/22 19:48:36;;;;;;;5.1;9.8;;;;;;;8.7;48.6;98580;;;;
2021/10/22 19:59:34;;;;;;;5.1;9.8;;;;;;;8.7;48.5;98580;;;;
2021/10/22 20:09:33;;;;;;;4;7.4;;;;;;;8.8;47.4;98590;;;;
2021/10/22 20:19:34;;;;;;;4;7.4;;;;;;;8.8;47.2;98600;;;;
2021/10/22 20:29:34;;;;;;;4;7.4;;;;;;;8.9;46.8;98600;;;;
2021/10/22 20:39:34;;;;;;;3.1;8.1;;;;;;;9;46.1;98590;;;;
2021/10/22 20:49:43;;;;;;;3.1;8.1;;;;;;;9.1;45.8;98580;;;;
2021/10/22 20:59:33;;;;;;;3.1;8.1;;;;;;;9;45.9;98600;;;;
2021/10/22 21:09:36;;;;;;;2.1;7.1;;;;;;;9.3;45.2;98610;;;;
2021/10/22 21:19:34;;;;;;;2.1;7.1;;;;;;;9.3;45.5;98620;;;;
2021/10/22 21:29:33;;;;;;;2.1;7.1;;;;;;;9.3;45.2;98620;;;;
2021/10/22 21:39:34;;;;;;;2.7;6.3;;;;;;;9.3;45.2;98620;;;;
2021/10/22 21:49:33;;;;;;;2.7;6.3;;;;;;;9.2;45.8;98640;;;;
2021/10/22 21:59:34;;;;;;;2.7;6.3;;;;;;;9;46.4;98650;;;;
2021/10/22 22:09:35;;;;;;;2.4;6.4;;;;;;;9;47.1;98650;;;;
2021/10/22 22:19:34;;;;;;;2.4;6.4;;;;;;;9.1;47.3;98660;;;;
2021/10/22 22:29:34;;;;;;;2.4;6.4;;;;;;;9.2;48.1;98660;;;;
2021/10/22 22:39:34;;;;;;;2.3;5.8;;;;;;;9.2;48;98650;;;;
2021/10/22 22:49:34;;;;;;;2.3;5.8;;;;;;;9.1;48.6;98660;;;;
2021/10/22 22:59:34;;;;;;;2.3;5.8;;;;;;;9;48.8;98650;;;;
2021/10/22 23:09:34;;;;;;;2.1;5.7;;;;;;;8.8;49.3;98670;;;;
2021/10/22 23:19:34;;;;;;;2.1;5.7;;;;;;;8.9;49.5;98670;;;;
2021/10/22 23:29:34;;;;;;;2.1;5.7;;;;;;;8.9;49.7;98670;;;;
2021/10/22 23:39:34;;;;;;;2.4;5.5;;;;;;;8.8;50;98690;;;;
2021/10/22 23:49:34;;;;;;;2.4;5.5;;;;;;;8.7;50.4;98710;;;;
2021/10/22 23:59:34;;;;;;;2.4;5.5;;;;;;;8.6;50.8;98730;;;;
